ADDS METAR Data

Data at: 0509 UTC 19 Jan 2018

METAR for:KFMH (Otis ANGB, MA, US)
Text:KFMH 190455Z AUTO 30006KT 10SM FEW034 FEW040 M05/M09 A2995 RMK AO2
Temperature: -5.0°C ( 23°F)
Dewpoint: -9.0°C ( 16°F) [RH = 73%]
Pressure (altimeter):29.95 inches Hg (1014.3 mb)
Winds:from the WNW (300 degrees) at 7 MPH (6 knots; 3.1 m/s)
Visibility:10 or more sm (16+ km)
Ceiling:at least 12,000 feet AGL
Clouds: few clouds at 3400 feet AGL, few clouds at 4000 feet AGL
QC Flag:automated observation with no human augmentation